sensor_id;sensor_type;location;lat;lon;timestamp;temperature;humidity
42907;DHT22;28552;51.146;6.576;2022-08-14T00:01:20;21.40;61.50
42907;DHT22;28552;51.146;6.576;2022-08-14T00:04:22;21.30;61.60
42907;DHT22;28552;51.146;6.576;2022-08-14T00:07:23;21.30;61.70
42907;DHT22;28552;51.146;6.576;2022-08-14T00:10:23;21.20;61.80
42907;DHT22;28552;51.146;6.576;2022-08-14T00:13:26;21.20;62.20
42907;DHT22;28552;51.146;6.576;2022-08-14T00:16:29;21.10;62.30
42907;DHT22;28552;51.146;6.576;2022-08-14T00:19:29;21.10;62.40
42907;DHT22;28552;51.146;6.576;2022-08-14T00:22:30;21.10;62.70
42907;DHT22;28552;51.146;6.576;2022-08-14T00:25:30;21.20;62.10
42907;DHT22;28552;51.146;6.576;2022-08-14T00:28:31;21.30;61.90
42907;DHT22;28552;51.146;6.576;2022-08-14T00:31:32;21.30;62.00
42907;DHT22;28552;51.146;6.576;2022-08-14T00:34:33;21.40;62.20
42907;DHT22;28552;51.146;6.576;2022-08-14T00:37:34;21.40;62.60
42907;DHT22;28552;51.146;6.576;2022-08-14T00:40:35;21.40;62.90
42907;DHT22;28552;51.146;6.576;2022-08-14T00:43:36;21.40;63.20
42907;DHT22;28552;51.146;6.576;2022-08-14T00:46:37;21.40;63.50
42907;DHT22;28552;51.146;6.576;2022-08-14T00:49:38;21.30;63.80
42907;DHT22;28552;51.146;6.576;2022-08-14T00:52:38;21.20;63.90
42907;DHT22;28552;51.146;6.576;2022-08-14T00:55:39;21.20;64.20
42907;DHT22;28552;51.146;6.576;2022-08-14T00:58:40;21.10;64.50
42907;DHT22;28552;51.146;6.576;2022-08-14T01:01:41;21.00;64.90
42907;DHT22;28552;51.146;6.576;2022-08-14T01:04:42;20.90;65.40
42907;DHT22;28552;51.146;6.576;2022-08-14T01:07:44;20.80;65.80
42907;DHT22;28552;51.146;6.576;2022-08-14T01:10:47;20.70;66.40
42907;DHT22;28552;51.146;6.576;2022-08-14T01:13:50;20.50;66.70
42907;DHT22;28552;51.146;6.576;2022-08-14T01:16:52;20.40;67.10
42907;DHT22;28552;51.146;6.576;2022-08-14T01:19:53;20.40;67.50
42907;DHT22;28552;51.146;6.576;2022-08-14T01:23:10;20.40;67.70
42907;DHT22;28552;51.146;6.576;2022-08-14T01:26:13;20.50;67.80
42907;DHT22;28552;51.146;6.576;2022-08-14T01:29:15;20.50;67.80
42907;DHT22;28552;51.146;6.576;2022-08-14T01:32:17;20.60;67.70
42907;DHT22;28552;51.146;6.576;2022-08-14T01:35:18;20.70;67.70
42907;DHT22;28552;51.146;6.576;2022-08-14T01:38:19;20.80;67.50
42907;DHT22;28552;51.146;6.576;2022-08-14T01:41:21;20.80;67.50
42907;DHT22;28552;51.146;6.576;2022-08-14T01:44:23;20.70;67.60
42907;DHT22;28552;51.146;6.576;2022-08-14T01:47:27;20.60;67.90
42907;DHT22;28552;51.146;6.576;2022-08-14T01:50:28;20.40;68.40
42907;DHT22;28552;51.146;6.576;2022-08-14T01:53:29;20.30;69.00
42907;DHT22;28552;51.146;6.576;2022-08-14T01:56:33;20.20;69.60
42907;DHT22;28552;51.146;6.576;2022-08-14T01:59:38;20.10;70.20
42907;DHT22;28552;51.146;6.576;2022-08-14T02:02:43;20.00;70.60
42907;DHT22;28552;51.146;6.576;2022-08-14T02:05:44;19.90;71.20
42907;DHT22;28552;51.146;6.576;2022-08-14T02:08:44;19.80;71.80
42907;DHT22;28552;51.146;6.576;2022-08-14T02:11:45;19.70;72.30
42907;DHT22;28552;51.146;6.576;2022-08-14T02:14:45;19.70;72.80
42907;DHT22;28552;51.146;6.576;2022-08-14T02:17:49;19.80;73.20
42907;DHT22;28552;51.146;6.576;2022-08-14T02:20:49;19.80;73.20
42907;DHT22;28552;51.146;6.576;2022-08-14T02:23:51;19.90;73.50
42907;DHT22;28552;51.146;6.576;2022-08-14T02:26:54;20.00;73.60
42907;DHT22;28552;51.146;6.576;2022-08-14T02:29:55;20.00;73.60
42907;DHT22;28552;51.146;6.576;2022-08-14T02:32:56;20.10;73.90
42907;DHT22;28552;51.146;6.576;2022-08-14T02:35:56;20.10;74.20
42907;DHT22;28552;51.146;6.576;2022-08-14T02:38:57;20.10;74.60
42907;DHT22;28552;51.146;6.576;2022-08-14T02:41:58;20.10;74.90
42907;DHT22;28552;51.146;6.576;2022-08-14T02:44:59;20.10;74.90
42907;DHT22;28552;51.146;6.576;2022-08-14T02:48:00;20.10;75.00
42907;DHT22;28552;51.146;6.576;2022-08-14T02:51:05;20.10;75.10
42907;DHT22;28552;51.146;6.576;2022-08-14T02:54:08;20.10;75.20
42907;DHT22;28552;51.146;6.576;2022-08-14T02:57:09;20.20;75.40
42907;DHT22;28552;51.146;6.576;2022-08-14T03:00:10;20.10;75.50
42907;DHT22;28552;51.146;6.576;2022-08-14T03:03:12;20.10;75.80
42907;DHT22;28552;51.146;6.576;2022-08-14T03:06:14;20.20;76.10
42907;DHT22;28552;51.146;6.576;2022-08-14T03:09:15;20.20;76.30
42907;DHT22;28552;51.146;6.576;2022-08-14T03:12:15;20.20;76.50
42907;DHT22;28552;51.146;6.576;2022-08-14T03:15:16;20.20;76.50
42907;DHT22;28552;51.146;6.576;2022-08-14T03:18:17;20.20;76.80
42907;DHT22;28552;51.146;6.576;2022-08-14T03:21:18;20.20;77.00
42907;DHT22;28552;51.146;6.576;2022-08-14T03:24:19;20.20;77.50
42907;DHT22;28552;51.146;6.576;2022-08-14T03:27:21;20.20;78.10
42907;DHT22;28552;51.146;6.576;2022-08-14T03:30:22;20.20;78.90
42907;DHT22;28552;51.146;6.576;2022-08-14T03:33:23;20.10;79.70
42907;DHT22;28552;51.146;6.576;2022-08-14T03:36:24;20.10;80.50
42907;DHT22;28552;51.146;6.576;2022-08-14T03:39:24;20.00;81.20
42907;DHT22;28552;51.146;6.576;2022-08-14T03:42:26;20.00;82.10
42907;DHT22;28552;51.146;6.576;2022-08-14T03:45:27;20.00;82.70
42907;DHT22;28552;51.146;6.576;2022-08-14T03:48:28;20.00;83.20
42907;DHT22;28552;51.146;6.576;2022-08-14T03:51:29;20.00;83.70
42907;DHT22;28552;51.146;6.576;2022-08-14T03:54:30;19.90;84.10
42907;DHT22;28552;51.146;6.576;2022-08-14T03:57:34;19.90;84.70
42907;DHT22;28552;51.146;6.576;2022-08-14T04:00:36;19.90;85.20
42907;DHT22;28552;51.146;6.576;2022-08-14T04:03:37;19.80;85.70
42907;DHT22;28552;51.146;6.576;2022-08-14T04:06:37;19.80;86.20
42907;DHT22;28552;51.146;6.576;2022-08-14T04:09:38;19.70;86.60
42907;DHT22;28552;51.146;6.576;2022-08-14T04:12:39;19.70;87.10
42907;DHT22;28552;51.146;6.576;2022-08-14T04:15:40;19.70;87.70
42907;DHT22;28552;51.146;6.576;2022-08-14T04:18:44;19.60;88.20
42907;DHT22;28552;51.146;6.576;2022-08-14T04:21:45;19.50;88.90
42907;DHT22;28552;51.146;6.576;2022-08-14T04:24:46;19.50;89.80
42907;DHT22;28552;51.146;6.576;2022-08-14T04:27:46;19.50;90.10
42907;DHT22;28552;51.146;6.576;2022-08-14T04:30:47;19.60;90.20
42907;DHT22;28552;51.146;6.576;2022-08-14T04:33:48;19.50;90.30
42907;DHT22;28552;51.146;6.576;2022-08-14T04:36:48;19.50;90.50
42907;DHT22;28552;51.146;6.576;2022-08-14T04:40:05;19.50;90.60
42907;DHT22;28552;51.146;6.576;2022-08-14T04:43:20;19.50;90.80
42907;DHT22;28552;51.146;6.576;2022-08-14T04:46:36;19.50;90.90
42907;DHT22;28552;51.146;6.576;2022-08-14T04:49:37;19.50;91.10
42907;DHT22;28552;51.146;6.576;2022-08-14T04:52:37;19.50;91.30
42907;DHT22;28552;51.146;6.576;2022-08-14T04:55:40;19.50;91.50
42907;DHT22;28552;51.146;6.576;2022-08-14T04:58:42;19.50;91.70
42907;DHT22;28552;51.146;6.576;2022-08-14T05:01:42;19.50;91.80
42907;DHT22;28552;51.146;6.576;2022-08-14T05:04:44;19.50;91.90
42907;DHT22;28552;51.146;6.576;2022-08-14T05:07:44;19.60;92.00
42907;DHT22;28552;51.146;6.576;2022-08-14T05:10:49;19.60;92.00
42907;DHT22;28552;51.146;6.576;2022-08-14T05:13:51;19.70;92.00
42907;DHT22;28552;51.146;6.576;2022-08-14T05:16:52;19.70;92.10
42907;DHT22;28552;51.146;6.576;2022-08-14T05:19:52;19.70;92.20
42907;DHT22;28552;51.146;6.576;2022-08-14T05:22:53;19.70;92.30
42907;DHT22;28552;51.146;6.576;2022-08-14T05:25:56;19.70;92.40
42907;DHT22;28552;51.146;6.576;2022-08-14T05:29:12;19.70;92.60
42907;DHT22;28552;51.146;6.576;2022-08-14T05:32:13;19.70;92.90
42907;DHT22;28552;51.146;6.576;2022-08-14T05:35:15;19.70;93.10
42907;DHT22;28552;51.146;6.576;2022-08-14T05:38:19;19.70;93.40
42907;DHT22;28552;51.146;6.576;2022-08-14T05:41:19;19.70;93.80
42907;DHT22;28552;51.146;6.576;2022-08-14T05:44:20;19.80;94.10
42907;DHT22;28552;51.146;6.576;2022-08-14T05:47:21;19.80;94.40
42907;DHT22;28552;51.146;6.576;2022-08-14T05:50:21;19.90;94.60
42907;DHT22;28552;51.146;6.576;2022-08-14T05:53:24;20.10;94.70
42907;DHT22;28552;51.146;6.576;2022-08-14T05:56:25;20.30;94.60
42907;DHT22;28552;51.146;6.576;2022-08-14T05:59:25;20.50;94.30
42907;DHT22;28552;51.146;6.576;2022-08-14T06:02:26;20.70;94.00
42907;DHT22;28552;51.146;6.576;2022-08-14T06:05:27;21.00;93.80
42907;DHT22;28552;51.146;6.576;2022-08-14T06:08:30;21.20;93.50
42907;DHT22;28552;51.146;6.576;2022-08-14T06:11:31;21.40;93.30
42907;DHT22;28552;51.146;6.576;2022-08-14T06:14:32;21.60;92.90
42907;DHT22;28552;51.146;6.576;2022-08-14T06:17:48;21.80;92.60
42907;DHT22;28552;51.146;6.576;2022-08-14T06:20:49;22.00;92.20
42907;DHT22;28552;51.146;6.576;2022-08-14T06:23:50;22.30;91.90
42907;DHT22;28552;51.146;6.576;2022-08-14T06:26:51;22.40;91.50
42907;DHT22;28552;51.146;6.576;2022-08-14T06:29:52;22.60;91.10
42907;DHT22;28552;51.146;6.576;2022-08-14T06:32:53;22.80;90.90
42907;DHT22;28552;51.146;6.576;2022-08-14T06:35:53;23.00;90.60
42907;DHT22;28552;51.146;6.576;2022-08-14T06:38:54;23.20;90.30
42907;DHT22;28552;51.146;6.576;2022-08-14T06:41:55;23.30;90.00
42907;DHT22;28552;51.146;6.576;2022-08-14T06:44:55;23.50;89.10
42907;DHT22;28552;51.146;6.576;2022-08-14T06:47:57;23.70;88.10
42907;DHT22;28552;51.146;6.576;2022-08-14T06:50:57;23.90;87.30
42907;DHT22;28552;51.146;6.576;2022-08-14T06:53:58;24.10;87.10
42907;DHT22;28552;51.146;6.576;2022-08-14T06:56:59;24.30;85.60
42907;DHT22;28552;51.146;6.576;2022-08-14T06:59:59;24.40;84.80
42907;DHT22;28552;51.146;6.576;2022-08-14T07:03:00;24.50;84.10
42907;DHT22;28552;51.146;6.576;2022-08-14T07:06:16;24.70;83.60
42907;DHT22;28552;51.146;6.576;2022-08-14T07:09:16;24.90;82.60
42907;DHT22;28552;51.146;6.576;2022-08-14T07:12:17;25.10;81.90
42907;DHT22;28552;51.146;6.576;2022-08-14T07:15:18;25.20;80.80
42907;DHT22;28552;51.146;6.576;2022-08-14T07:18:20;25.40;80.40
42907;DHT22;28552;51.146;6.576;2022-08-14T07:21:20;25.50;79.80
42907;DHT22;28552;51.146;6.576;2022-08-14T07:24:21;25.60;79.10
42907;DHT22;28552;51.146;6.576;2022-08-14T07:27:22;25.70;78.50
42907;DHT22;28552;51.146;6.576;2022-08-14T07:30:22;25.80;77.80
42907;DHT22;28552;51.146;6.576;2022-08-14T07:33:25;26.00;77.30
42907;DHT22;28552;51.146;6.576;2022-08-14T07:36:26;26.10;76.70
42907;DHT22;28552;51.146;6.576;2022-08-14T07:39:27;26.30;76.20
42907;DHT22;28552;51.146;6.576;2022-08-14T07:42:28;26.40;75.60
42907;DHT22;28552;51.146;6.576;2022-08-14T07:45:29;26.60;75.10
42907;DHT22;28552;51.146;6.576;2022-08-14T07:48:30;26.60;74.50
42907;DHT22;28552;51.146;6.576;2022-08-14T07:51:30;26.80;74.30
42907;DHT22;28552;51.146;6.576;2022-08-14T07:54:31;27.00;74.00
42907;DHT22;28552;51.146;6.576;2022-08-14T07:57:32;27.10;73.30
42907;DHT22;28552;51.146;6.576;2022-08-14T08:00:32;27.20;72.70
42907;DHT22;28552;51.146;6.576;2022-08-14T08:03:33;27.30;72.00
42907;DHT22;28552;51.146;6.576;2022-08-14T08:06:36;27.40;71.20
42907;DHT22;28552;51.146;6.576;2022-08-14T08:09:42;27.50;70.60
42907;DHT22;28552;51.146;6.576;2022-08-14T08:12:43;27.60;70.40
42907;DHT22;28552;51.146;6.576;2022-08-14T08:15:47;27.80;70.00
42907;DHT22;28552;51.146;6.576;2022-08-14T08:18:48;27.90;69.00
42907;DHT22;28552;51.146;6.576;2022-08-14T08:21:49;28.00;68.80
42907;DHT22;28552;51.146;6.576;2022-08-14T08:24:50;28.00;68.60
42907;DHT22;28552;51.146;6.576;2022-08-14T08:28:08;28.10;68.10
42907;DHT22;28552;51.146;6.576;2022-08-14T08:31:09;28.20;67.80
42907;DHT22;28552;51.146;6.576;2022-08-14T08:34:11;28.40;67.70
42907;DHT22;28552;51.146;6.576;2022-08-14T08:37:13;28.60;67.10
42907;DHT22;28552;51.146;6.576;2022-08-14T08:40:24;28.70;66.10
42907;DHT22;28552;51.146;6.576;2022-08-14T08:43:29;28.80;65.70
42907;DHT22;28552;51.146;6.576;2022-08-14T08:46:30;28.80;64.80
42907;DHT22;28552;51.146;6.576;2022-08-14T08:49:39;28.90;64.10
42907;DHT22;28552;51.146;6.576;2022-08-14T08:52:51;29.00;63.90
42907;DHT22;28552;51.146;6.576;2022-08-14T08:55:51;29.00;63.70
42907;DHT22;28552;51.146;6.576;2022-08-14T08:58:52;28.90;63.50
42907;DHT22;28552;51.146;6.576;2022-08-14T09:01:54;28.90;63.50
42907;DHT22;28552;51.146;6.576;2022-08-14T09:05:01;28.80;63.30
42907;DHT22;28552;51.146;6.576;2022-08-14T09:11:13;28.50;63.70
42907;DHT22;28552;51.146;6.576;2022-08-14T09:14:15;28.30;63.60
42907;DHT22;28552;51.146;6.576;2022-08-14T09:17:15;28.20;63.40
42907;DHT22;28552;51.146;6.576;2022-08-14T09:20:16;28.10;63.10
42907;DHT22;28552;51.146;6.576;2022-08-14T09:23:17;28.00;62.90
42907;DHT22;28552;51.146;6.576;2022-08-14T09:26:19;28.00;62.60
42907;DHT22;28552;51.146;6.576;2022-08-14T09:29:19;28.00;62.90
42907;DHT22;28552;51.146;6.576;2022-08-14T09:32:28;27.90;62.90
42907;DHT22;28552;51.146;6.576;2022-08-14T09:35:51;27.90;62.80
42907;DHT22;28552;51.146;6.576;2022-08-14T09:42:28;28.00;62.10
42907;DHT22;28552;51.146;6.576;2022-08-14T09:45:41;28.10;61.80
42907;DHT22;28552;51.146;6.576;2022-08-14T09:48:44;28.10;61.10
42907;DHT22;28552;51.146;6.576;2022-08-14T09:51:45;28.20;60.70
42907;DHT22;28552;51.146;6.576;2022-08-14T09:54:47;28.20;60.40
42907;DHT22;28552;51.146;6.576;2022-08-14T09:57:49;28.20;60.80
42907;DHT22;28552;51.146;6.576;2022-08-14T10:00:52;28.30;60.00
42907;DHT22;28552;51.146;6.576;2022-08-14T10:03:55;28.40;59.50
42907;DHT22;28552;51.146;6.576;2022-08-14T10:06:56;28.50;58.80
42907;DHT22;28552;51.146;6.576;2022-08-14T10:09:58;28.50;58.40
42907;DHT22;28552;51.146;6.576;2022-08-14T10:13:01;28.60;58.20
42907;DHT22;28552;51.146;6.576;2022-08-14T10:16:02;28.60;57.90
42907;DHT22;28552;51.146;6.576;2022-08-14T10:19:06;28.70;57.50
42907;DHT22;28552;51.146;6.576;2022-08-14T10:22:09;28.70;57.30
42907;DHT22;28552;51.146;6.576;2022-08-14T10:25:11;28.80;57.20
42907;DHT22;28552;51.146;6.576;2022-08-14T10:28:14;28.80;56.80
42907;DHT22;28552;51.146;6.576;2022-08-14T10:31:28;28.90;56.40
42907;DHT22;28552;51.146;6.576;2022-08-14T10:34:33;28.90;56.10
42907;DHT22;28552;51.146;6.576;2022-08-14T10:37:39;29.00;55.70
42907;DHT22;28552;51.146;6.576;2022-08-14T10:40:40;29.10;55.10
42907;DHT22;28552;51.146;6.576;2022-08-14T10:43:42;29.10;54.80
42907;DHT22;28552;51.146;6.576;2022-08-14T10:46:51;29.10;54.70
42907;DHT22;28552;51.146;6.576;2022-08-14T10:49:57;29.20;54.50
42907;DHT22;28552;51.146;6.576;2022-08-14T10:52:58;29.20;54.00
42907;DHT22;28552;51.146;6.576;2022-08-14T10:56:00;29.20;53.60
42907;DHT22;28552;51.146;6.576;2022-08-14T10:59:06;29.30;53.10
42907;DHT22;28552;51.146;6.576;2022-08-14T11:02:17;29.30;53.00
42907;DHT22;28552;51.146;6.576;2022-08-14T11:05:19;29.30;52.80
42907;DHT22;28552;51.146;6.576;2022-08-14T11:08:32;29.40;52.70
42907;DHT22;28552;51.146;6.576;2022-08-14T11:11:41;29.40;52.50
42907;DHT22;28552;51.146;6.576;2022-08-14T11:14:51;29.50;52.80
42907;DHT22;28552;51.146;6.576;2022-08-14T11:17:52;29.60;52.40
42907;DHT22;28552;51.146;6.576;2022-08-14T11:20:55;29.70;51.90
42907;DHT22;28552;51.146;6.576;2022-08-14T11:23:57;29.70;51.40
42907;DHT22;28552;51.146;6.576;2022-08-14T11:26:59;29.70;51.00
42907;DHT22;28552;51.146;6.576;2022-08-14T11:30:05;29.60;50.80
42907;DHT22;28552;51.146;6.576;2022-08-14T11:33:06;29.60;50.60
42907;DHT22;28552;51.146;6.576;2022-08-14T11:36:08;29.70;50.80
42907;DHT22;28552;51.146;6.576;2022-08-14T11:39:19;29.80;50.70
42907;DHT22;28552;51.146;6.576;2022-08-14T11:42:22;29.80;50.30
42907;DHT22;28552;51.146;6.576;2022-08-14T11:45:25;29.90;50.20
42907;DHT22;28552;51.146;6.576;2022-08-14T11:48:26;29.90;50.20
42907;DHT22;28552;51.146;6.576;2022-08-14T11:51:27;29.90;49.80
42907;DHT22;28552;51.146;6.576;2022-08-14T11:54:29;29.90;49.90
42907;DHT22;28552;51.146;6.576;2022-08-14T11:57:30;30.00;49.60
42907;DHT22;28552;51.146;6.576;2022-08-14T12:00:31;30.00;49.10
42907;DHT22;28552;51.146;6.576;2022-08-14T12:03:47;30.10;48.60
42907;DHT22;28552;51.146;6.576;2022-08-14T12:06:50;30.10;48.30
42907;DHT22;28552;51.146;6.576;2022-08-14T12:09:54;30.20;48.50
42907;DHT22;28552;51.146;6.576;2022-08-14T12:12:56;30.30;48.00
42907;DHT22;28552;51.146;6.576;2022-08-14T12:16:00;30.30;47.60
42907;DHT22;28552;51.146;6.576;2022-08-14T12:19:01;30.40;47.70
42907;DHT22;28552;51.146;6.576;2022-08-14T12:22:02;30.40;47.80
42907;DHT22;28552;51.146;6.576;2022-08-14T12:25:06;30.50;47.70
42907;DHT22;28552;51.146;6.576;2022-08-14T12:28:10;30.50;47.60
42907;DHT22;28552;51.146;6.576;2022-08-14T12:31:14;30.60;47.50
42907;DHT22;28552;51.146;6.576;2022-08-14T12:34:16;30.60;47.40
42907;DHT22;28552;51.146;6.576;2022-08-14T12:37:28;30.70;47.20
42907;DHT22;28552;51.146;6.576;2022-08-14T12:40:29;30.70;47.10
42907;DHT22;28552;51.146;6.576;2022-08-14T12:43:31;30.70;46.70
42907;DHT22;28552;51.146;6.576;2022-08-14T12:46:37;30.80;46.80
42907;DHT22;28552;51.146;6.576;2022-08-14T12:49:48;30.90;46.70
42907;DHT22;28552;51.146;6.576;2022-08-14T12:52:51;30.90;46.50
42907;DHT22;28552;51.146;6.576;2022-08-14T12:56:00;31.00;46.60
42907;DHT22;28552;51.146;6.576;2022-08-14T12:59:01;30.90;46.50
42907;DHT22;28552;51.146;6.576;2022-08-14T13:02:02;30.90;46.40
42907;DHT22;28552;51.146;6.576;2022-08-14T13:05:03;30.80;46.30
42907;DHT22;28552;51.146;6.576;2022-08-14T13:08:04;30.70;46.50
42907;DHT22;28552;51.146;6.576;2022-08-14T13:11:10;30.60;46.60
42907;DHT22;28552;51.146;6.576;2022-08-14T13:14:15;30.70;46.70
42907;DHT22;28552;51.146;6.576;2022-08-14T13:17:16;30.70;46.90
42907;DHT22;28552;51.146;6.576;2022-08-14T13:20:20;30.90;46.70
42907;DHT22;28552;51.146;6.576;2022-08-14T13:23:21;31.00;46.50
42907;DHT22;28552;51.146;6.576;2022-08-14T13:26:25;31.00;46.10
42907;DHT22;28552;51.146;6.576;2022-08-14T13:29:29;31.20;45.70
42907;DHT22;28552;51.146;6.576;2022-08-14T13:32:32;31.20;45.80
42907;DHT22;28552;51.146;6.576;2022-08-14T13:35:33;31.20;45.60
42907;DHT22;28552;51.146;6.576;2022-08-14T13:38:34;31.20;45.80
42907;DHT22;28552;51.146;6.576;2022-08-14T13:41:35;31.20;45.50
42907;DHT22;28552;51.146;6.576;2022-08-14T13:44:37;31.20;45.20
42907;DHT22;28552;51.146;6.576;2022-08-14T13:47:37;31.20;44.80
42907;DHT22;28552;51.146;6.576;2022-08-14T13:50:40;31.30;44.60
42907;DHT22;28552;51.146;6.576;2022-08-14T13:53:46;31.40;45.00
42907;DHT22;28552;51.146;6.576;2022-08-14T13:56:47;31.40;45.10
42907;DHT22;28552;51.146;6.576;2022-08-14T13:59:49;31.60;45.20
42907;DHT22;28552;51.146;6.576;2022-08-14T14:02:50;31.70;45.00
42907;DHT22;28552;51.146;6.576;2022-08-14T14:05:53;31.80;45.00
42907;DHT22;28552;51.146;6.576;2022-08-14T14:08:55;31.70;44.80
42907;DHT22;28552;51.146;6.576;2022-08-14T14:11:58;31.60;44.60
42907;DHT22;28552;51.146;6.576;2022-08-14T14:14:59;31.50;44.50
42907;DHT22;28552;51.146;6.576;2022-08-14T14:18:00;31.50;44.40
42907;DHT22;28552;51.146;6.576;2022-08-14T14:21:02;31.50;44.30
42907;DHT22;28552;51.146;6.576;2022-08-14T14:24:03;31.60;44.30
42907;DHT22;28552;51.146;6.576;2022-08-14T14:27:05;31.70;44.20
42907;DHT22;28552;51.146;6.576;2022-08-14T14:30:09;31.80;44.30
42907;DHT22;28552;51.146;6.576;2022-08-14T14:33:11;31.80;44.00
42907;DHT22;28552;51.146;6.576;2022-08-14T14:36:18;31.90;44.30
42907;DHT22;28552;51.146;6.576;2022-08-14T14:39:23;31.90;44.50
42907;DHT22;28552;51.146;6.576;2022-08-14T14:42:26;31.80;44.40
42907;DHT22;28552;51.146;6.576;2022-08-14T14:45:27;31.80;44.60
42907;DHT22;28552;51.146;6.576;2022-08-14T14:48:29;31.70;44.80
42907;DHT22;28552;51.146;6.576;2022-08-14T14:51:31;31.70;45.20
42907;DHT22;28552;51.146;6.576;2022-08-14T14:54:32;31.60;45.00
42907;DHT22;28552;51.146;6.576;2022-08-14T14:57:33;31.60;44.90
42907;DHT22;28552;51.146;6.576;2022-08-14T15:00:33;31.60;44.80
42907;DHT22;28552;51.146;6.576;2022-08-14T15:03:36;31.70;44.60
42907;DHT22;28552;51.146;6.576;2022-08-14T15:06:37;31.70;44.30
42907;DHT22;28552;51.146;6.576;2022-08-14T15:09:38;31.70;44.10
42907;DHT22;28552;51.146;6.576;2022-08-14T15:12:39;31.70;43.80
42907;DHT22;28552;51.146;6.576;2022-08-14T15:15:41;31.70;43.80
42907;DHT22;28552;51.146;6.576;2022-08-14T15:18:41;31.80;44.10
42907;DHT22;28552;51.146;6.576;2022-08-14T15:21:44;31.90;44.10
42907;DHT22;28552;51.146;6.576;2022-08-14T15:24:46;31.90;44.20
42907;DHT22;28552;51.146;6.576;2022-08-14T15:27:46;31.80;44.30
42907;DHT22;28552;51.146;6.576;2022-08-14T15:30:51;31.70;44.70
42907;DHT22;28552;51.146;6.576;2022-08-14T15:33:52;31.50;45.00
42907;DHT22;28552;51.146;6.576;2022-08-14T15:37:07;31.40;45.00
42907;DHT22;28552;51.146;6.576;2022-08-14T15:40:08;31.30;45.00
42907;DHT22;28552;51.146;6.576;2022-08-14T15:43:10;31.30;44.90
42907;DHT22;28552;51.146;6.576;2022-08-14T15:46:11;31.30;44.90
42907;DHT22;28552;51.146;6.576;2022-08-14T15:49:11;31.30;44.70
42907;DHT22;28552;51.146;6.576;2022-08-14T15:52:12;31.30;44.70
42907;DHT22;28552;51.146;6.576;2022-08-14T15:55:14;31.40;44.70
42907;DHT22;28552;51.146;6.576;2022-08-14T15:58:14;31.50;44.20
42907;DHT22;28552;51.146;6.576;2022-08-14T16:01:17;31.60;44.10
42907;DHT22;28552;51.146;6.576;2022-08-14T16:04:21;31.70;44.00
42907;DHT22;28552;51.146;6.576;2022-08-14T16:07:23;31.80;43.80
42907;DHT22;28552;51.146;6.576;2022-08-14T16:10:24;31.70;43.40
42907;DHT22;28552;51.146;6.576;2022-08-14T16:13:24;31.70;43.50
42907;DHT22;28552;51.146;6.576;2022-08-14T16:16:26;31.60;43.50
42907;DHT22;28552;51.146;6.576;2022-08-14T16:19:29;31.50;43.80
42907;DHT22;28552;51.146;6.576;2022-08-14T16:22:31;31.40;43.80
42907;DHT22;28552;51.146;6.576;2022-08-14T16:25:34;31.40;43.70
42907;DHT22;28552;51.146;6.576;2022-08-14T16:28:35;31.30;43.80
42907;DHT22;28552;51.146;6.576;2022-08-14T16:31:36;31.30;43.70
42907;DHT22;28552;51.146;6.576;2022-08-14T16:34:37;31.30;44.00
42907;DHT22;28552;51.146;6.576;2022-08-14T16:37:41;31.20;44.00
42907;DHT22;28552;51.146;6.576;2022-08-14T16:40:43;31.20;44.00
42907;DHT22;28552;51.146;6.576;2022-08-14T16:43:45;31.30;44.20
42907;DHT22;28552;51.146;6.576;2022-08-14T16:46:47;31.50;44.30
42907;DHT22;28552;51.146;6.576;2022-08-14T16:49:47;31.50;44.20
42907;DHT22;28552;51.146;6.576;2022-08-14T16:52:51;31.70;44.30
42907;DHT22;28552;51.146;6.576;2022-08-14T16:56:08;31.70;44.50
42907;DHT22;28552;51.146;6.576;2022-08-14T17:02:13;31.80;45.10
42907;DHT22;28552;51.146;6.576;2022-08-14T17:05:15;31.80;44.80
42907;DHT22;28552;51.146;6.576;2022-08-14T17:08:18;31.70;44.60
42907;DHT22;28552;51.146;6.576;2022-08-14T17:11:22;31.60;44.50
42907;DHT22;28552;51.146;6.576;2022-08-14T17:14:25;31.50;45.00
42907;DHT22;28552;51.146;6.576;2022-08-14T17:20:41;31.30;45.60
42907;DHT22;28552;51.146;6.576;2022-08-14T17:23:46;31.10;45.40
42907;DHT22;28552;51.146;6.576;2022-08-14T17:26:50;31.00;45.50
42907;DHT22;28552;51.146;6.576;2022-08-14T17:29:52;30.90;45.60
42907;DHT22;28552;51.146;6.576;2022-08-14T17:32:53;30.80;45.90
42907;DHT22;28552;51.146;6.576;2022-08-14T17:39:12;30.60;46.00
42907;DHT22;28552;51.146;6.576;2022-08-14T17:42:13;30.50;46.20
42907;DHT22;28552;51.146;6.576;2022-08-14T17:45:16;30.30;46.80
42907;DHT22;28552;51.146;6.576;2022-08-14T17:48:27;30.20;46.80
42907;DHT22;28552;51.146;6.576;2022-08-14T17:51:28;30.10;47.50
42907;DHT22;28552;51.146;6.576;2022-08-14T17:54:35;29.90;47.90
42907;DHT22;28552;51.146;6.576;2022-08-14T17:57:38;29.80;48.50
42907;DHT22;28552;51.146;6.576;2022-08-14T18:00:41;29.60;49.10
42907;DHT22;28552;51.146;6.576;2022-08-14T18:03:43;29.50;49.30
42907;DHT22;28552;51.146;6.576;2022-08-14T18:06:46;29.40;49.50
42907;DHT22;28552;51.146;6.576;2022-08-14T18:09:49;29.20;49.90
42907;DHT22;28552;51.146;6.576;2022-08-14T18:12:50;29.10;50.30
42907;DHT22;28552;51.146;6.576;2022-08-14T18:15:52;29.00;50.60
42907;DHT22;28552;51.146;6.576;2022-08-14T18:18:55;28.80;50.80
42907;DHT22;28552;51.146;6.576;2022-08-14T18:21:57;28.70;51.20
42907;DHT22;28552;51.146;6.576;2022-08-14T18:24:59;28.50;51.70
42907;DHT22;28552;51.146;6.576;2022-08-14T18:28:08;28.30;52.20
42907;DHT22;28552;51.146;6.576;2022-08-14T18:34:35;27.80;53.90
42907;DHT22;28552;51.146;6.576;2022-08-14T18:37:38;27.60;54.40
42907;DHT22;28552;51.146;6.576;2022-08-14T18:40:39;27.50;54.50
42907;DHT22;28552;51.146;6.576;2022-08-14T18:43:42;27.40;54.60
42907;DHT22;28552;51.146;6.576;2022-08-14T18:50:19;27.10;55.10
42907;DHT22;28552;51.146;6.576;2022-08-14T18:53:23;27.00;55.50
42907;DHT22;28552;51.146;6.576;2022-08-14T18:59:56;26.60;56.50
42907;DHT22;28552;51.146;6.576;2022-08-14T19:02:58;26.40;56.90
42907;DHT22;28552;51.146;6.576;2022-08-14T19:06:01;26.40;57.20
42907;DHT22;28552;51.146;6.576;2022-08-14T19:09:03;26.30;57.30
42907;DHT22;28552;51.146;6.576;2022-08-14T19:12:04;26.20;57.60
42907;DHT22;28552;51.146;6.576;2022-08-14T19:15:08;26.20;58.00
42907;DHT22;28552;51.146;6.576;2022-08-14T19:18:25;26.20;58.10
42907;DHT22;28552;51.146;6.576;2022-08-14T19:21:28;26.30;58.10
42907;DHT22;28552;51.146;6.576;2022-08-14T19:24:40;26.30;57.70
42907;DHT22;28552;51.146;6.576;2022-08-14T19:27:41;26.40;58.20
42907;DHT22;28552;51.146;6.576;2022-08-14T19:30:42;26.40;58.80
42907;DHT22;28552;51.146;6.576;2022-08-14T19:36:48;26.50;59.70
42907;DHT22;28552;51.146;6.576;2022-08-14T19:39:53;26.50;59.70
42907;DHT22;28552;51.146;6.576;2022-08-14T19:42:55;26.40;60.00